Time;durP1;ratioP1;P1;durP2;ratioP2;P2;SDS_P1;SDS_P2;PMS_P1;PMS_P2;Temp;Humidity;BMP_temperature;BMP_pressure;BME280_temperature;BME280_humidity;BME280_pressure;Samples;Min_cycle;Max_cycle;Signal;HPM_P1;HPM_P2
2024/03/05 00:01:14;;;;;;;55.50;37.60;;;;;;;8.22;90.97;95865.87;109111;1272;22538;-73
2024/03/05 00:03:54;;;;;;;57.90;37.10;;;;;;;8.27;91.25;95864.59;109090;1272;22512;-73
2024/03/05 00:06:25;;;;;;;59.40;38.50;;;;;;;8.34;91.23;95861.48;109097;1272;24419;-73
2024/03/05 00:08:57;;;;;;;57.20;37.40;;;;;;;8.32;91.08;95858.52;109098;1272;22512;-73
2024/03/05 00:11:28;;;;;;;50.80;34.60;;;;;;;8.35;91.20;95860.68;109115;1272;22527;-74
2024/03/05 00:13:59;;;;;;;53.10;35.70;;;;;;;8.40;91.02;95860.30;109072;1272;22466;-73
2024/03/05 00:16:30;;;;;;;54.50;35.60;;;;;;;8.44;91.11;95869.09;109155;1272;23744;-73
2024/03/05 00:19:02;;;;;;;49.10;33.90;;;;;;;8.49;91.09;95869.61;109142;1269;24010;-74
2024/03/05 00:21:33;;;;;;;53.50;37.40;;;;;;;8.55;91.04;95867.31;109103;1272;23214;-73
2024/03/05 00:24:05;;;;;;;50.70;35.00;;;;;;;8.55;90.85;95870.52;109120;1272;24951;-73
2024/03/05 00:26:39;;;;;;;53.80;37.30;;;;;;;8.51;90.77;95866.52;109110;1272;23479;-74
2024/03/05 00:29:11;;;;;;;53.90;36.30;;;;;;;8.48;90.41;95868.09;109107;1272;22586;-73
2024/03/05 00:31:47;;;;;;;57.20;37.30;;;;;;;8.26;89.75;95868.42;109124;1267;23433;-73
2024/03/05 00:34:19;;;;;;;56.10;37.40;;;;;;;8.19;90.40;95866.27;109103;1272;23199;-73
2024/03/05 00:36:50;;;;;;;52.50;34.20;;;;;;;8.22;90.72;95868.30;109114;1273;23011;-74
2024/03/05 00:39:27;;;;;;;55.30;36.90;;;;;;;8.17;90.18;95862.07;109121;1272;22451;-74
2024/03/05 00:42:01;;;;;;;59.60;38.40;;;;;;;8.08;90.36;95867.76;109132;1272;22509;-73
2024/03/05 00:44:33;;;;;;;52.20;35.80;;;;;;;8.03;90.53;95862.38;109142;1272;22581;-74
2024/03/05 00:47:06;;;;;;;51.20;35.30;;;;;;;8.04;90.98;95863.75;109116;1272;23004;-74
2024/03/05 00:49:42;;;;;;;51.20;34.80;;;;;;;8.02;90.94;95860.38;109118;1272;22673;-73
2024/03/05 00:52:14;;;;;;;53.90;35.10;;;;;;;8.00;91.07;95864.08;109155;1272;22511;-73
2024/03/05 00:54:48;;;;;;;51.70;34.30;;;;;;;8.03;91.08;95864.38;109149;1272;25264;-74
2024/03/05 00:57:23;;;;;;;49.10;32.70;;;;;;;8.03;91.10;95868.34;109147;1272;25397;-74
2024/03/05 00:59:54;;;;;;;61.90;38.90;;;;;;;7.97;90.86;95867.39;109151;1272;23727;-74
2024/03/05 01:02:25;;;;;;;59.30;37.00;;;;;;;7.86;90.92;95865.80;109124;1270;24356;-73
2024/03/05 01:04:56;;;;;;;58.40;37.20;;;;;;;7.78;91.10;95869.48;109109;1272;23842;-73
2024/03/05 01:07:35;;;;;;;53.90;35.70;;;;;;;7.76;91.31;95871.09;109099;1270;22518;-73
2024/03/05 01:10:12;;;;;;;56.40;34.50;;;;;;;7.72;91.07;95871.27;109128;1272;25939;-74
2024/03/05 01:12:43;;;;;;;53.10;33.80;;;;;;;7.67;91.36;95872.95;109034;1273;22515;-74
2024/03/05 01:15:17;;;;;;;49.10;34.60;;;;;;;7.68;91.38;95870.73;109101;1273;22698;-74
2024/03/05 01:17:49;;;;;;;50.30;33.70;;;;;;;7.64;91.34;95871.09;109107;1266;24186;-74
2024/03/05 01:20:28;;;;;;;50.90;33.50;;;;;;;7.63;91.46;95869.15;109129;1272;22577;-74
2024/03/05 01:23:04;;;;;;;47.90;32.40;;;;;;;7.64;91.49;95869.19;109075;1267;22547;-74
2024/03/05 01:25:35;;;;;;;44.50;31.60;;;;;;;7.63;91.47;95863.81;109110;1273;22561;-74
2024/03/05 01:28:08;;;;;;;41.70;30.40;;;;;;;7.56;90.94;95862.34;109150;1270;22545;-74
2024/03/05 01:30:40;;;;;;;50.70;33.60;;;;;;;7.47;90.97;95862.83;109167;1272;22644;-74
2024/03/05 01:33:19;;;;;;;49.80;33.40;;;;;;;7.36;90.75;95862.14;109140;1272;22561;-74
2024/03/05 01:35:53;;;;;;;55.30;36.40;;;;;;;7.24;90.94;95860.58;109127;1269;22541;-74
2024/03/05 01:38:27;;;;;;;57.60;37.50;;;;;;;7.19;91.31;95861.05;109103;1270;22453;-74
2024/03/05 01:40:58;;;;;;;52.60;33.30;;;;;;;7.14;91.37;95864.70;109064;1267;22579;-74
2024/03/05 01:43:32;;;;;;;57.00;33.80;;;;;;;7.02;90.83;95863.42;109073;1273;25400;-74
2024/03/05 01:46:08;;;;;;;61.80;37.30;;;;;;;6.87;90.87;95864.87;109099;1267;22521;-74
2024/03/05 01:48:43;;;;;;;56.40;36.20;;;;;;;6.75;91.11;95870.15;109112;1266;22542;-74
2024/03/05 01:51:20;;;;;;;54.10;35.10;;;;;;;6.62;90.94;95872.85;109106;1272;22530;-74
2024/03/05 01:53:52;;;;;;;53.50;33.00;;;;;;;6.50;91.35;95872.75;109045;1273;22683;-74
2024/03/05 01:56:25;;;;;;;48.20;32.30;;;;;;;6.45;91.98;95872.44;109089;1268;22550;-74
2024/03/05 01:58:57;;;;;;;46.20;31.70;;;;;;;6.44;92.13;95872.60;109082;1273;22563;-74
2024/03/05 02:01:34;;;;;;;55.60;33.80;;;;;;;6.51;92.77;95876.02;109065;1254;22516;-74
2024/03/05 02:04:10;;;;;;;47.30;32.00;;;;;;;6.55;92.55;95875.15;109066;1267;22547;-74
2024/03/05 02:06:46;;;;;;;45.70;30.10;;;;;;;6.46;91.92;95874.50;109121;1272;23865;-74
2024/03/05 02:09:21;;;;;;;34.80;25.80;;;;;;;6.38;92.18;95871.96;109120;1267;22517;-74
2024/03/05 02:11:55;;;;;;;36.70;26.20;;;;;;;6.36;92.23;95873.81;109088;1272;22969;-74
2024/03/05 02:14:32;;;;;;;34.80;24.50;;;;;;;6.37;92.50;95876.49;109054;1273;22456;-74
2024/03/05 02:17:08;;;;;;;37.10;25.80;;;;;;;6.40;92.57;95878.80;109095;1272;22510;-74
2024/03/05 02:19:46;;;;;;;41.40;26.50;;;;;;;6.35;92.63;95876.92;109114;1272;22511;-74
2024/03/05 02:22:20;;;;;;;38.60;25.60;;;;;;;6.37;92.72;95879.02;109060;1269;22498;-74
2024/03/05 02:24:54;;;;;;;35.70;24.80;;;;;;;6.37;92.88;95877.02;109135;1273;24339;-74
2024/03/05 02:27:26;;;;;;;38.20;27.10;;;;;;;6.43;93.22;95877.67;109053;1273;22504;-74
2024/03/05 02:29:59;;;;;;;36.40;25.60;;;;;;;6.53;93.72;95882.27;109109;1267;22561;-74
2024/03/05 02:32:34;;;;;;;37.20;25.70;;;;;;;6.55;93.33;95883.37;109072;1273;22567;-74
2024/03/05 02:35:14;;;;;;;38.50;26.10;;;;;;;6.54;93.23;95882.42;109077;1272;22520;-74
2024/03/05 02:37:49;;;;;;;32.90;23.90;;;;;;;6.63;93.37;95881.34;109104;1272;22561;-75
2024/03/05 02:40:21;;;;;;;34.10;25.90;;;;;;;6.59;92.85;95880.45;109118;1251;22535;-75
2024/03/05 02:42:55;;;;;;;31.90;24.80;;;;;;;6.53;92.91;95884.31;109085;1267;22509;-74
2024/03/05 02:45:26;;;;;;;33.70;24.80;;;;;;;6.58;93.43;95881.20;109077;1272;22563;-74
2024/03/05 02:48:02;;;;;;;30.10;22.10;;;;;;;6.66;93.82;95886.16;109050;1267;24193;-74
2024/03/05 02:50:35;;;;;;;31.00;22.50;;;;;;;6.72;93.68;95884.02;109071;1267;22484;-74
2024/03/05 02:53:07;;;;;;;30.60;23.20;;;;;;;6.80;93.93;95889.95;109083;1254;22531;-74
2024/03/05 02:55:39;;;;;;;31.40;23.40;;;;;;;6.88;93.92;95887.68;109096;1267;24342;-74
2024/03/05 02:58:10;;;;;;;27.70;21.10;;;;;;;6.93;93.83;95884.61;109068;1272;22659;-73
2024/03/05 03:00:46;;;;;;;29.00;22.20;;;;;;;6.93;93.31;95885.25;109083;1267;25307;-74
2024/03/05 03:03:19;;;;;;;31.00;22.60;;;;;;;6.89;93.30;95886.45;109074;1272;22540;-74
2024/03/05 03:05:53;;;;;;;29.60;22.20;;;;;;;6.93;93.51;95881.56;109113;1267;25246;-74
2024/03/05 03:08:34;;;;;;;33.20;25.70;;;;;;;6.92;93.10;95880.89;109102;1266;22520;-74
2024/03/05 03:11:07;;;;;;;32.20;26.20;;;;;;;6.89;93.32;95885.09;109069;1273;22472;-74
2024/03/05 03:13:41;;;;;;;31.80;22.30;;;;;;;6.91;93.41;95885.73;109055;1270;22586;-74
2024/03/05 03:16:15;;;;;;;31.40;23.90;;;;;;;6.97;93.78;95885.00;109034;1266;25983;-74
2024/03/05 03:18:51;;;;;;;30.50;22.40;;;;;;;7.07;93.88;95887.79;109067;1272;23195;-74
2024/03/05 03:21:25;;;;;;;30.80;22.90;;;;;;;7.10;93.51;95892.79;109140;1270;22520;-74
2024/03/05 03:23:56;;;;;;;34.60;24.30;;;;;;;7.06;93.52;95892.65;109065;1272;22517;-74
2024/03/05 03:26:30;;;;;;;34.40;25.30;;;;;;;7.02;93.11;95896.30;109088;1270;24213;-74
2024/03/05 03:29:05;;;;;;;37.10;27.00;;;;;;;6.91;92.77;95903.11;109091;1272;23765;-74
2024/03/05 03:31:36;;;;;;;39.20;28.20;;;;;;;6.81;92.88;95905.54;109049;1270;24236;-74
2024/03/05 03:34:10;;;;;;;43.40;30.60;;;;;;;6.80;93.51;95911.70;109084;1269;24277;-74
2024/03/05 03:36:41;;;;;;;45.00;29.90;;;;;;;6.84;93.81;95910.95;109049;1273;25290;-74
2024/03/05 03:39:23;;;;;;;42.60;29.80;;;;;;;6.90;94.03;95914.30;109072;1272;23002;-74
2024/03/05 03:42:01;;;;;;;37.80;26.50;;;;;;;6.96;94.30;95914.84;109025;1273;22650;-74
2024/03/05 03:44:35;;;;;;;38.60;26.90;;;;;;;7.03;94.57;95911.89;109073;1270;22511;-74
2024/03/05 03:47:09;;;;;;;32.80;24.20;;;;;;;7.07;94.56;95913.88;109065;1251;22608;-74
2024/03/05 03:49:48;;;;;;;31.00;23.60;;;;;;;7.12;94.33;95916.01;109135;1272;23864;-74
2024/03/05 03:52:19;;;;;;;32.30;24.10;;;;;;;7.07;93.80;95919.74;109059;1267;22469;-74
2024/03/05 03:54:50;;;;;;;35.00;25.10;;;;;;;7.04;93.97;95923.83;109097;1272;24418;-74
2024/03/05 03:57:21;;;;;;;32.00;24.50;;;;;;;7.07;94.31;95923.86;109035;1269;23424;-74
2024/03/05 03:59:56;;;;;;;32.20;25.00;;;;;;;7.10;94.13;95923.09;109038;1267;22528;-74
2024/03/05 04:02:33;;;;;;;28.70;21.40;;;;;;;7.11;94.11;95925.81;109118;1266;24274;-74
2024/03/05 04:05:09;;;;;;;35.80;24.70;;;;;;;7.14;94.14;95930.33;109091;1269;22519;-74
2024/03/05 04:07:42;;;;;;;30.80;22.70;;;;;;;7.17;94.21;95931.73;109170;1272;22490;-74
2024/03/05 04:10:15;;;;;;;29.20;22.40;;;;;;;7.24;94.36;95930.45;109059;1272;22518;-74
2024/03/05 04:12:50;;;;;;;34.50;24.60;;;;;;;7.28;94.17;95931.25;107241;1258;2517211;-74
2024/03/05 04:15:21;;;;;;;32.50;24.00;;;;;;;7.33;94.39;95934.61;109113;1272;25284;-74
2024/03/05 04:17:57;;;;;;;32.30;23.40;;;;;;;7.35;94.12;95933.29;109191;1272;22514;-74
2024/03/05 04:20:32;;;;;;;31.40;23.70;;;;;;;7.32;93.86;95937.15;109122;1272;22562;-74
2024/03/05 04:23:04;;;;;;;30.50;23.20;;;;;;;7.21;93.49;95938.00;109037;1272;22530;-74
2024/03/05 04:25:40;;;;;;;29.90;22.70;;;;;;;7.13;93.46;95936.67;109144;1272;22656;-74
2024/03/05 04:28:14;;;;;;;35.40;27.20;;;;;;;7.06;93.54;95935.45;109126;1254;22775;-74
2024/03/05 04:30:48;;;;;;;35.50;26.00;;;;;;;7.05;94.03;95939.15;109071;1272;22508;-74
2024/03/05 04:33:21;;;;;;;35.00;24.90;;;;;;;7.07;94.34;95940.61;109062;1270;24350;-74
2024/03/05 04:35:56;;;;;;;31.60;24.40;;;;;;;7.09;94.45;95944.08;109164;1272;23743;-74
2024/03/05 04:38:30;;;;;;;35.10;25.10;;;;;;;7.09;94.55;95937.21;109020;1272;22974;-74
2024/03/05 04:41:02;;;;;;;34.90;24.70;;;;;;;7.16;94.80;95939.44;109165;1266;23600;-74
2024/03/05 04:43:33;;;;;;;35.80;26.20;;;;;;;7.22;94.92;95939.69;109043;1272;22556;-74
2024/03/05 04:46:09;;;;;;;33.30;24.70;;;;;;;7.25;94.84;95936.76;109071;1272;24000;-74
2024/03/05 04:48:42;;;;;;;30.20;23.40;;;;;;;7.26;94.58;95935.70;109095;1266;22777;-74
2024/03/05 04:51:18;;;;;;;30.50;22.40;;;;;;;7.29;94.53;95936.16;109056;1272;130243;-74
2024/03/05 04:53:51;;;;;;;30.30;22.60;;;;;;;7.34;94.48;95939.52;109083;1250;22452;-74
2024/03/05 04:56:25;;;;;;;29.30;23.10;;;;;;;7.33;94.15;95938.24;109119;1272;22526;-74
2024/03/05 04:58:56;;;;;;;34.80;26.10;;;;;;;7.27;94.01;95937.06;109088;1267;22643;-73
2024/03/05 05:01:29;;;;;;;34.80;25.90;;;;;;;7.25;94.27;95941.98;109100;1272;22556;-74
2024/03/05 05:04:01;;;;;;;33.70;24.70;;;;;;;7.25;94.36;95939.73;109030;1272;27328;-74
2024/03/05 05:06:33;;;;;;;30.60;23.20;;;;;;;7.26;94.48;95941.18;109085;1272;22475;-74
2024/03/05 05:09:07;;;;;;;31.60;23.70;;;;;;;7.31;94.64;95946.00;109093;1272;22533;-74
2024/03/05 05:11:43;;;;;;;28.50;22.40;;;;;;;7.34;94.51;95942.63;109133;1272;23896;-74
2024/03/05 05:14:14;;;;;;;34.30;25.30;;;;;;;7.30;94.22;95947.33;109113;1272;22521;-74
2024/03/05 05:16:49;;;;;;;36.50;26.60;;;;;;;7.27;94.54;95951.46;109060;1272;22518;-74
2024/03/05 05:19:21;;;;;;;35.10;25.50;;;;;;;7.27;94.71;95958.84;109118;1270;22524;-74
2024/03/05 05:21:52;;;;;;;34.40;25.10;;;;;;;7.29;94.81;95956.71;109114;1251;22520;-75
2024/03/05 05:24:24;;;;;;;30.00;22.50;;;;;;;7.32;94.81;95958.34;109072;1272;22515;-75
2024/03/05 05:26:57;;;;;;;34.10;25.50;;;;;;;7.20;94.17;95955.23;109049;1266;22511;-75
2024/03/05 05:29:31;;;;;;;28.10;21.20;;;;;;;7.06;94.25;95957.16;109061;1272;22511;-74
2024/03/05 05:32:06;;;;;;;29.00;21.80;;;;;;;7.01;94.44;95958.65;109081;1270;22504;-74
2024/03/05 05:34:37;;;;;;;28.80;22.20;;;;;;;6.99;94.38;95959.73;109117;1272;22511;-74
2024/03/05 05:37:08;;;;;;;30.30;23.40;;;;;;;6.96;94.38;95962.42;109033;1273;22533;-74
2024/03/05 05:39:39;;;;;;;32.30;24.10;;;;;;;6.94;94.47;95961.29;109107;1266;22527;-74
2024/03/05 05:42:13;;;;;;;31.00;24.10;;;;;;;6.99;94.89;95967.52;109090;1273;22789;-74
2024/03/05 05:44:48;;;;;;;30.90;22.20;;;;;;;7.11;95.32;95965.26;109032;1273;25236;-73
2024/03/05 05:47:20;;;;;;;33.50;24.00;;;;;;;7.24;95.34;95970.41;109024;1273;22504;-74
2024/03/05 05:49:53;;;;;;;29.30;22.70;;;;;;;7.36;95.45;95976.67;109041;1273;22572;-74
2024/03/05 05:52:31;;;;;;;34.70;25.60;;;;;;;7.42;95.35;95977.42;109023;1267;24473;-74
2024/03/05 05:55:05;;;;;;;35.60;24.50;;;;;;;7.49;95.43;95980.55;108999;1267;23768;-74
2024/03/05 05:57:42;;;;;;;31.50;24.70;;;;;;;7.58;95.47;95977.48;108997;1273;22475;-74
2024/03/05 06:00:24;;;;;;;31.80;23.60;;;;;;;7.63;95.44;95977.23;109052;1273;24421;-74
2024/03/05 06:02:57;;;;;;;32.40;23.60;;;;;;;7.68;95.43;95978.61;109004;1273;22548;-74
2024/03/05 06:05:42;;;;;;;28.20;21.50;;;;;;;7.69;95.15;95983.62;109032;1273;22599;-74
2024/03/05 06:08:15;;;;;;;26.10;22.20;;;;;;;7.68;95.04;95988.38;108974;1273;22516;-74
2024/03/05 06:10:49;;;;;;;29.90;23.20;;;;;;;7.72;95.13;95997.80;109015;1272;22511;-74
2024/03/05 06:13:25;;;;;;;37.90;28.60;;;;;;;7.76;95.33;96001.85;109018;1267;22976;-74
2024/03/05 06:15:59;;;;;;;42.50;29.20;;;;;;;7.73;94.94;96001.59;109011;1268;24237;-74
2024/03/05 06:18:33;;;;;;;31.00;23.50;;;;;;;7.62;94.61;96006.58;109022;1267;22564;-74
2024/03/05 06:21:07;;;;;;;31.80;24.30;;;;;;;7.49;94.59;96007.51;109027;1273;22549;-74
2024/03/05 06:23:42;;;;;;;45.90;30.30;;;;;;;7.39;94.63;96007.08;108994;1266;22555;-74
2024/03/05 06:26:20;;;;;;;45.40;31.20;;;;;;;7.34;95.20;96010.44;109099;1272;22527;-74
2024/03/05 06:28:51;;;;;;;50.60;34.80;;;;;;;7.38;95.71;96016.95;109053;1266;22517;-74
2024/03/05 06:31:25;;;;;;;43.20;30.40;;;;;;;7.41;95.95;96017.87;109097;1272;22588;-73
2024/03/05 06:33:59;;;;;;;43.40;30.00;;;;;;;7.40;95.76;96021.15;109021;1273;22541;-73
2024/03/05 06:36:35;;;;;;;41.30;29.90;;;;;;;7.40;95.94;96023.47;109065;1267;22518;-74
2024/03/05 06:39:09;;;;;;;37.20;26.30;;;;;;;7.44;96.22;96028.71;109117;1269;22527;-74
2024/03/05 06:41:42;;;;;;;44.60;27.50;;;;;;;7.45;96.07;96030.62;109053;1267;22517;-74
2024/03/05 06:44:25;;;;;;;39.80;28.10;;;;;;;7.41;96.07;96033.02;109111;1271;24360;-74
2024/03/05 06:46:58;;;;;;;29.80;23.20;;;;;;;7.36;96.14;96035.79;109099;1272;24514;-74
2024/03/05 06:49:37;;;;;;;31.50;23.50;;;;;;;7.31;95.97;96039.77;109096;1272;22510;-74
2024/03/05 06:57:53;;;;;;;30.50;21.90;;;;;;;7.05;96.46;96056.42;108980;1274;22618;-74
2024/03/05 07:00:24;;;;;;;29.50;20.30;;;;;;;7.04;96.67;96056.54;109064;1266;22504;-75
2024/03/05 07:02:58;;;;;;;26.50;16.70;;;;;;;7.03;96.84;96053.05;109012;1274;24266;-74
2024/03/05 07:05:32;;;;;;;25.50;18.20;;;;;;;6.98;96.95;96056.75;109012;1273;22559;-74
2024/03/05 07:08:05;;;;;;;25.20;18.60;;;;;;;6.86;97.53;96066.13;109092;1266;24251;-74
2024/03/05 07:10:38;;;;;;;22.80;15.90;;;;;;;6.84;97.83;96065.86;109075;1270;25403;-74
2024/03/05 07:13:12;;;;;;;22.20;15.60;;;;;;;6.83;97.91;96070.18;109015;1250;22525;-75
2024/03/05 07:15:45;;;;;;;23.00;15.20;;;;;;;6.85;98.17;96069.59;109015;1267;25418;-75
2024/03/05 07:18:16;;;;;;;22.50;15.20;;;;;;;6.88;98.34;96073.01;109028;1270;24305;-75
2024/03/05 07:20:49;;;;;;;18.90;13.00;;;;;;;6.88;98.33;96078.43;109010;1274;22620;-74
2024/03/05 07:23:23;;;;;;;13.60;9.00;;;;;;;6.88;98.13;96082.12;109051;1273;22563;-74
2024/03/05 07:25:55;;;;;;;12.40;8.70;;;;;;;6.84;98.07;96084.98;109039;1272;22710;-75
2024/03/05 07:28:28;;;;;;;11.90;7.60;;;;;;;6.82;97.99;96091.95;109095;1272;22528;-74
2024/03/05 07:31:01;;;;;;;9.70;6.80;;;;;;;6.78;97.94;96096.86;109099;1269;22839;-75
2024/03/05 07:33:41;;;;;;;8.80;6.00;;;;;;;6.74;97.90;96098.91;109028;1251;22555;-74
2024/03/05 07:36:15;;;;;;;7.90;4.50;;;;;;;6.71;97.93;96098.65;109052;1274;22507;-74
2024/03/05 07:38:46;;;;;;;7.70;4.50;;;;;;;6.67;97.97;96101.45;109002;1267;22514;-74
2024/03/05 07:41:22;;;;;;;8.90;5.00;;;;;;;6.61;98.06;96107.26;109036;1273;22590;-74
2024/03/05 07:43:54;;;;;;;7.20;4.20;;;;;;;6.55;98.05;96110.46;109008;1270;23833;-75
2024/03/05 07:46:28;;;;;;;8.00;4.80;;;;;;;6.53;98.29;96113.69;109086;1272;22518;-75
2024/03/05 07:48:59;;;;;;;8.50;5.30;;;;;;;6.51;98.22;96116.86;109108;1266;22520;-75
2024/03/05 07:51:33;;;;;;;8.60;5.70;;;;;;;6.48;98.26;96120.80;109077;1266;22619;-75
2024/03/05 07:54:04;;;;;;;10.90;6.40;;;;;;;6.46;98.43;96121.84;109013;1271;23290;-75
2024/03/05 07:56:35;;;;;;;10.30;6.80;;;;;;;6.46;98.46;96124.59;109043;1274;22542;-75
2024/03/05 07:59:12;;;;;;;13.40;8.40;;;;;;;6.42;98.53;96124.84;109060;1267;22532;-75
2024/03/05 08:01:45;;;;;;;12.10;7.80;;;;;;;6.39;98.71;96129.85;109044;1273;22511;-75
2024/03/05 08:04:22;;;;;;;12.90;8.30;;;;;;;6.39;98.87;96130.02;109018;1273;22507;-74
2024/03/05 08:06:55;;;;;;;11.40;8.50;;;;;;;6.37;98.98;96131.27;109061;1270;22533;-75
2024/03/05 08:09:28;;;;;;;12.80;8.60;;;;;;;6.33;99.18;96135.90;109128;1266;22531;-74
2024/03/05 08:12:00;;;;;;;10.60;7.50;;;;;;;6.30;99.12;96144.11;109061;1267;22580;-74
2024/03/05 08:14:40;;;;;;;11.80;7.20;;;;;;;6.29;99.36;96144.42;109093;1269;22554;-75
2024/03/05 08:17:17;;;;;;;10.10;7.10;;;;;;;6.30;99.51;96151.05;109052;1270;22677;-74
2024/03/05 08:19:49;;;;;;;9.30;6.30;;;;;;;6.30;99.46;96155.00;109041;1251;22545;-74
2024/03/05 08:22:21;;;;;;;9.20;5.50;;;;;;;6.28;99.30;96153.52;109145;1267;25982;-74
2024/03/05 08:24:52;;;;;;;7.40;5.10;;;;;;;6.27;99.50;96155.21;109125;1269;24240;-74
2024/03/05 08:27:25;;;;;;;6.70;4.90;;;;;;;6.25;99.47;96159.42;109232;1266;22518;-74
2024/03/05 08:29:59;;;;;;;6.00;4.40;;;;;;;6.27;99.78;96162.43;109140;1272;24167;-75
2024/03/05 08:32:33;;;;;;;6.30;4.50;;;;;;;6.30;99.60;96166.11;109215;1266;24199;-74
2024/03/05 08:35:11;;;;;;;7.60;4.60;;;;;;;6.28;99.62;96170.33;109096;1267;25049;-74
2024/03/05 08:37:45;;;;;;;6.10;4.50;;;;;;;6.30;99.78;96175.69;109064;1273;22511;-75
2024/03/05 08:40:22;;;;;;;7.30;5.10;;;;;;;6.39;100.00;96178.77;109087;1269;22627;-74
2024/03/05 08:42:55;;;;;;;7.80;5.70;;;;;;;6.46;99.82;96181.66;109074;1272;23787;-74
2024/03/05 08:45:26;;;;;;;8.10;5.40;;;;;;;6.48;99.65;96186.67;109104;1273;22782;-74
2024/03/05 08:48:00;;;;;;;7.60;5.10;;;;;;;6.51;99.84;96186.80;109073;1270;22575;-75
2024/03/05 08:50:31;;;;;;;7.80;4.90;;;;;;;6.59;99.75;96191.41;109086;1268;22451;-75
2024/03/05 08:53:09;;;;;;;6.10;4.80;;;;;;;6.60;99.75;96194.48;109069;1273;25407;-74
2024/03/05 08:55:52;;;;;;;9.60;5.20;;;;;;;6.60;99.34;96199.05;109082;1267;24464;-74
2024/03/05 08:58:23;;;;;;;8.00;5.70;;;;;;;6.62;99.51;96200.48;109091;1268;24491;-74
2024/03/05 09:00:56;;;;;;;7.70;5.30;;;;;;;6.68;99.56;96202.44;109078;1273;22508;-74
2024/03/05 09:03:32;;;;;;;6.30;4.70;;;;;;;6.74;99.52;96206.44;109090;1268;22517;-74
2024/03/05 09:06:06;;;;;;;7.20;4.50;;;;;;;6.82;99.75;96209.08;109168;1266;22515;-74
2024/03/05 09:08:41;;;;;;;6.00;4.40;;;;;;;6.88;99.53;96209.80;109160;1272;22511;-74
2024/03/05 09:11:13;;;;;;;6.30;4.20;;;;;;;6.86;99.16;96212.13;109151;1272;25210;-74
2024/03/05 09:13:49;;;;;;;7.00;4.70;;;;;;;6.83;98.98;96214.56;109119;1272;22733;-74
2024/03/05 09:16:23;;;;;;;5.90;4.40;;;;;;;6.83;98.88;96221.04;109085;1267;24150;-74
2024/03/05 09:18:59;;;;;;;4.80;3.50;;;;;;;6.84;98.92;96217.66;109132;1251;22558;-74
2024/03/05 09:21:35;;;;;;;5.00;3.10;;;;;;;6.87;98.75;96221.30;109114;1270;22529;-74
2024/03/05 09:24:09;;;;;;;6.20;3.80;;;;;;;6.87;98.45;96225.57;109111;1266;22515;-74
2024/03/05 09:26:51;;;;;;;6.00;4.20;;;;;;;6.88;98.53;96224.77;109191;1272;22455;-74
2024/03/05 09:29:24;;;;;;;6.30;4.20;;;;;;;6.89;98.41;96228.27;109125;1272;25424;-74
2024/03/05 09:32:00;;;;;;;5.70;3.50;;;;;;;6.91;98.40;96229.17;109119;1272;22993;-74
2024/03/05 09:34:33;;;;;;;4.70;3.70;;;;;;;6.91;98.25;96230.70;109107;1268;22827;-74
2024/03/05 09:37:06;;;;;;;6.10;3.80;;;;;;;6.84;97.79;96230.69;109069;1270;25109;-74
2024/03/05 09:39:38;;;;;;;6.60;4.30;;;;;;;6.77;97.68;96233.32;109073;1273;22969;-75
2024/03/05 09:42:20;;;;;;;5.50;3.90;;;;;;;6.73;97.81;96234.94;109091;1274;23124;-74
2024/03/05 09:44:55;;;;;;;6.10;4.10;;;;;;;6.71;97.58;96234.63;109131;1272;22559;-74
2024/03/05 09:47:34;;;;;;;6.50;3.60;;;;;;;6.66;97.65;96238.58;109090;1273;22541;-74
2024/03/05 09:50:19;;;;;;;5.20;3.90;;;;;;;6.65;97.59;96237.64;109134;1273;22493;-74
2024/03/05 09:52:51;;;;;;;5.60;4.20;;;;;;;6.55;97.35;96239.52;109112;1269;22661;-74
2024/03/05 09:55:23;;;;;;;8.00;5.40;;;;;;;6.50;97.51;96241.73;109204;1273;22504;-74
2024/03/05 09:57:58;;;;;;;6.80;4.70;;;;;;;6.47;97.40;96244.08;109243;1274;25590;-74
2024/03/05 10:00:34;;;;;;;7.10;5.00;;;;;;;6.45;97.58;96245.96;109148;1266;22560;-75
2024/03/05 10:03:08;;;;;;;8.30;5.70;;;;;;;6.46;97.64;96246.85;109126;1266;22517;-74
2024/03/05 10:05:44;;;;;;;8.40;6.00;;;;;;;6.46;97.67;96247.33;109179;1271;23264;-74
2024/03/05 10:08:16;;;;;;;8.40;5.80;;;;;;;6.49;97.72;96251.57;109105;1266;22543;-74
2024/03/05 10:10:49;;;;;;;8.80;6.30;;;;;;;6.52;97.78;96251.15;109157;1266;25223;-74
2024/03/05 10:13:21;;;;;;;8.00;5.60;;;;;;;6.55;97.92;96258.16;109142;1267;22550;-74
2024/03/05 10:15:53;;;;;;;10.50;8.50;;;;;;;6.65;97.92;96256.48;109048;1273;23601;-74
2024/03/05 10:18:38;;;;;;;7.90;5.90;;;;;;;6.68;97.55;96263.60;109094;1268;22607;-74
2024/03/05 10:21:20;;;;;;;9.70;8.00;;;;;;;6.63;97.29;96266.98;109129;1270;22642;-74
2024/03/05 10:24:02;;;;;;;9.30;7.20;;;;;;;6.72;97.89;96269.55;109105;1272;23533;-74
2024/03/05 10:26:35;;;;;;;8.60;6.20;;;;;;;6.81;97.83;96269.20;109102;1266;24059;-74
2024/03/05 10:29:13;;;;;;;7.50;5.70;;;;;;;6.84;97.76;96266.30;109092;1272;22514;-74
2024/03/05 10:31:49;;;;;;;9.40;6.70;;;;;;;6.92;97.74;96257.58;109058;1272;22491;-74
2024/03/05 10:34:24;;;;;;;8.20;6.00;;;;;;;7.03;97.98;96256.35;109030;1273;23982;-74
2024/03/05 10:37:04;;;;;;;9.90;7.10;;;;;;;7.15;97.89;96256.08;109060;1272;22540;-74
2024/03/05 10:39:41;;;;;;;9.90;7.10;;;;;;;7.12;97.30;96258.15;109025;1274;24228;-74
2024/03/05 10:42:17;;;;;;;9.80;6.60;;;;;;;7.05;97.11;96258.20;109028;1268;23673;-74
2024/03/05 10:44:50;;;;;;;7.50;5.80;;;;;;;7.05;97.44;96260.00;109091;1265;22634;-74
2024/03/05 10:47:22;;;;;;;9.40;6.00;;;;;;;7.09;97.50;96260.20;109096;1266;23861;-74
2024/03/05 10:49:56;;;;;;;10.60;7.50;;;;;;;7.13;97.37;96264.73;109114;1273;22514;-74
2024/03/05 10:52:33;;;;;;;9.10;6.90;;;;;;;7.15;97.40;96263.46;109066;1270;22532;-74
2024/03/05 10:55:13;;;;;;;9.70;6.90;;;;;;;7.15;97.05;96264.94;109105;1265;22522;-74
2024/03/05 11:00:36;;;;;;;10.70;7.80;;;;;;;7.11;96.76;96259.77;109089;1272;22476;-74
2024/03/05 11:03:10;;;;;;;11.80;8.70;;;;;;;7.05;96.51;96266.16;109046;1272;22476;-74
2024/03/05 11:05:51;;;;;;;13.00;9.80;;;;;;;7.01;96.60;96264.58;109042;1273;22469;-74
2024/03/05 11:08:24;;;;;;;13.20;9.60;;;;;;;6.91;96.44;96267.16;109041;1269;22590;-74
2024/03/05 11:11:02;;;;;;;14.10;10.50;;;;;;;6.91;96.80;96267.15;109054;1266;22829;-74
2024/03/05 11:13:36;;;;;;;15.70;12.10;;;;;;;6.94;96.78;96269.01;109149;1269;22517;-73
2024/03/05 11:16:09;;;;;;;14.60;10.60;;;;;;;6.95;96.85;96269.27;109072;1266;22524;-74
2024/03/05 11:18:44;;;;;;;15.00;11.10;;;;;;;7.01;96.99;96269.89;109075;1272;22546;-74
2024/03/05 11:21:17;;;;;;;14.50;11.00;;;;;;;7.02;96.90;96264.30;109084;1266;25211;-74
2024/03/05 11:23:57;;;;;;;15.00;11.60;;;;;;;7.04;97.00;96262.79;109079;1273;22882;-73
2024/03/05 11:26:31;;;;;;;16.10;11.10;;;;;;;7.04;96.82;96263.86;108962;1266;22538;-74
2024/03/05 11:29:06;;;;;;;15.00;11.40;;;;;;;7.04;96.73;96267.90;109035;1273;22569;-73
2024/03/05 11:31:41;;;;;;;14.60;11.10;;;;;;;7.10;97.12;96268.54;109075;1274;22588;-73
2024/03/05 11:34:17;;;;;;;14.20;10.80;;;;;;;7.26;97.53;96264.63;109091;1266;22540;-74
2024/03/05 11:37:10;;;;;;;15.80;12.20;;;;;;;7.41;97.53;96267.51;109118;1266;24260;-74
2024/03/05 11:39:47;;;;;;;18.60;13.90;;;;;;;7.42;96.84;96266.45;109044;1266;25429;-74
2024/03/05 11:42:25;;;;;;;17.40;13.40;;;;;;;7.36;96.71;96264.93;109099;1273;22524;-73
2024/03/05 11:44:59;;;;;;;17.50;13.00;;;;;;;7.34;96.62;96273.06;109035;1266;23067;-73
2024/03/05 11:47:31;;;;;;;17.50;13.60;;;;;;;7.20;95.97;96277.86;109007;1262;22541;-74
2024/03/05 11:50:06;;;;;;;16.40;12.80;;;;;;;7.09;96.12;96285.56;109083;1267;22354;-74
2024/03/05 11:52:39;;;;;;;19.60;13.50;;;;;;;7.09;96.36;96282.72;109070;1268;22474;-75
2024/03/05 11:55:13;;;;;;;18.50;13.60;;;;;;;7.01;95.92;96280.19;109121;1266;25289;-74
2024/03/05 11:57:55;;;;;;;18.00;12.40;;;;;;;6.93;96.07;96283.83;109130;1266;22637;-74
2024/03/05 12:00:28;;;;;;;15.90;11.60;;;;;;;6.91;96.11;96285.08;109066;1272;22535;-74
2024/03/05 12:03:08;;;;;;;17.70;13.30;;;;;;;6.92;96.22;96286.19;109061;1272;22514;-74